sensor_id;sensor_type;location;lat;lon;timestamp;P1;durP1;ratioP1;P2;durP2;ratioP2
64208;SDS011;50527;52.414;13.226;2022-10-22T00:01:31;4.50;;;2.80;;
64208;SDS011;50527;52.414;13.226;2022-10-22T00:03:57;7.35;;;2.97;;
64208;SDS011;50527;52.414;13.226;2022-10-22T00:06:22;7.82;;;3.10;;
64208;SDS011;50527;52.414;13.226;2022-10-22T00:08:48;8.25;;;3.20;;
64208;SDS011;50527;52.414;13.226;2022-10-22T00:11:14;4.80;;;2.58;;
64208;SDS011;50527;52.414;13.226;2022-10-22T00:13:42;5.60;;;2.53;;
64208;SDS011;50527;52.414;13.226;2022-10-22T00:16:08;4.95;;;2.85;;
64208;SDS011;50527;52.414;13.226;2022-10-22T00:18:33;5.57;;;3.05;;
64208;SDS011;50527;52.414;13.226;2022-10-22T00:20:59;5.18;;;2.95;;
64208;SDS011;50527;52.414;13.226;2022-10-22T00:23:25;4.95;;;2.47;;
64208;SDS011;50527;52.414;13.226;2022-10-22T00:25:51;11.40;;;2.95;;
64208;SDS011;50527;52.414;13.226;2022-10-22T00:28:17;5.30;;;3.00;;
64208;SDS011;50527;52.414;13.226;2022-10-22T00:30:43;9.00;;;2.90;;
64208;SDS011;50527;52.414;13.226;2022-10-22T00:33:08;5.10;;;2.78;;
64208;SDS011;50527;52.414;13.226;2022-10-22T00:35:34;5.40;;;3.00;;
64208;SDS011;50527;52.414;13.226;2022-10-22T00:38:00;6.60;;;3.10;;
64208;SDS011;50527;52.414;13.226;2022-10-22T00:40:25;10.77;;;2.65;;
64208;SDS011;50527;52.414;13.226;2022-10-22T00:42:51;5.53;;;2.42;;
64208;SDS011;50527;52.414;13.226;2022-10-22T00:50:16;4.95;;;2.72;;
64208;SDS011;50527;52.414;13.226;2022-10-22T00:52:47;5.03;;;2.30;;
64208;SDS011;50527;52.414;13.226;2022-10-22T00:55:14;8.60;;;2.30;;
64208;SDS011;50527;52.414;13.226;2022-10-22T00:57:40;4.22;;;2.30;;
64208;SDS011;50527;52.414;13.226;2022-10-22T01:00:06;9.45;;;2.75;;
64208;SDS011;50527;52.414;13.226;2022-10-22T01:02:32;6.68;;;3.80;;
64208;SDS011;50527;52.414;13.226;2022-10-22T01:04:58;6.20;;;3.13;;
64208;SDS011;50527;52.414;13.226;2022-10-22T01:07:23;8.07;;;2.83;;
64208;SDS011;50527;52.414;13.226;2022-10-22T01:12:53;6.63;;;3.20;;
64208;SDS011;50527;52.414;13.226;2022-10-22T01:15:35;10.18;;;3.20;;
64208;SDS011;50527;52.414;13.226;2022-10-22T01:18:18;10.88;;;3.45;;
64208;SDS011;50527;52.414;13.226;2022-10-22T01:20:54;5.43;;;2.95;;
64208;SDS011;50527;52.414;13.226;2022-10-22T01:23:35;8.50;;;3.13;;
64208;SDS011;50527;52.414;13.226;2022-10-22T01:26:17;6.15;;;2.92;;
64208;SDS011;50527;52.414;13.226;2022-10-22T01:28:59;5.43;;;2.92;;
64208;SDS011;50527;52.414;13.226;2022-10-22T01:31:57;5.32;;;2.58;;
64208;SDS011;50527;52.414;13.226;2022-10-22T01:34:26;10.40;;;2.58;;
64208;SDS011;50527;52.414;13.226;2022-10-22T01:36:54;9.55;;;2.95;;
64208;SDS011;50527;52.414;13.226;2022-10-22T01:39:21;5.75;;;2.72;;
64208;SDS011;50527;52.414;13.226;2022-10-22T01:41:49;9.27;;;2.63;;
64208;SDS011;50527;52.414;13.226;2022-10-22T01:44:31;5.40;;;2.47;;
64208;SDS011;50527;52.414;13.226;2022-10-22T01:47:02;9.15;;;2.75;;
64208;SDS011;50527;52.414;13.226;2022-10-22T01:49:45;5.10;;;2.50;;
64208;SDS011;50527;52.414;13.226;2022-10-22T01:55:19;5.13;;;2.45;;
64208;SDS011;50527;52.414;13.226;2022-10-22T01:57:55;6.85;;;2.42;;
64208;SDS011;50527;52.414;13.226;2022-10-22T02:00:46;8.55;;;2.75;;
64208;SDS011;50527;52.414;13.226;2022-10-22T02:03:23;4.00;;;2.13;;
64208;SDS011;50527;52.414;13.226;2022-10-22T02:05:55;4.75;;;2.40;;
64208;SDS011;50527;52.414;13.226;2022-10-22T02:08:23;6.22;;;2.25;;
64208;SDS011;50527;52.414;13.226;2022-10-22T02:10:55;5.60;;;2.30;;
64208;SDS011;50527;52.414;13.226;2022-10-22T02:13:29;4.18;;;2.00;;
64208;SDS011;50527;52.414;13.226;2022-10-22T02:16:00;4.75;;;2.28;;
64208;SDS011;50527;52.414;13.226;2022-10-22T02:18:28;4.95;;;2.25;;
64208;SDS011;50527;52.414;13.226;2022-10-22T02:20:56;4.53;;;2.30;;
64208;SDS011;50527;52.414;13.226;2022-10-22T02:23:23;4.88;;;2.17;;
64208;SDS011;50527;52.414;13.226;2022-10-22T02:28:36;7.10;;;2.40;;
64208;SDS011;50527;52.414;13.226;2022-10-22T02:31:22;4.00;;;1.85;;
64208;SDS011;50527;52.414;13.226;2022-10-22T02:33:53;3.80;;;1.80;;
64208;SDS011;50527;52.414;13.226;2022-10-22T02:36:21;3.85;;;1.80;;
64208;SDS011;50527;52.414;13.226;2022-10-22T02:38:48;4.45;;;2.28;;
64208;SDS011;50527;52.414;13.226;2022-10-22T02:41:15;7.03;;;2.15;;
64208;SDS011;50527;52.414;13.226;2022-10-22T02:43:43;4.85;;;2.17;;
64208;SDS011;50527;52.414;13.226;2022-10-22T02:46:12;4.80;;;2.15;;
64208;SDS011;50527;52.414;13.226;2022-10-22T02:48:38;3.10;;;1.95;;
64208;SDS011;50527;52.414;13.226;2022-10-22T02:51:03;4.22;;;2.10;;
64208;SDS011;50527;52.414;13.226;2022-10-22T02:53:29;4.60;;;1.88;;
64208;SDS011;50527;52.414;13.226;2022-10-22T02:55:54;4.88;;;1.92;;
64208;SDS011;50527;52.414;13.226;2022-10-22T02:58:20;5.38;;;2.20;;
64208;SDS011;50527;52.414;13.226;2022-10-22T03:00:45;4.45;;;2.10;;
64208;SDS011;50527;52.414;13.226;2022-10-22T03:03:12;5.22;;;2.58;;
64208;SDS011;50527;52.414;13.226;2022-10-22T03:05:37;4.85;;;2.35;;
64208;SDS011;50527;52.414;13.226;2022-10-22T03:08:03;9.98;;;2.30;;
64208;SDS011;50527;52.414;13.226;2022-10-22T03:10:28;6.82;;;2.83;;
64208;SDS011;50527;52.414;13.226;2022-10-22T03:12:54;9.90;;;2.88;;
64208;SDS011;50527;52.414;13.226;2022-10-22T03:15:20;7.60;;;2.42;;
64208;SDS011;50527;52.414;13.226;2022-10-22T03:17:45;9.02;;;3.03;;
64208;SDS011;50527;52.414;13.226;2022-10-22T03:20:11;4.88;;;2.40;;
64208;SDS011;50527;52.414;13.226;2022-10-22T03:22:36;4.75;;;2.42;;
64208;SDS011;50527;52.414;13.226;2022-10-22T03:25:05;5.45;;;2.55;;
64208;SDS011;50527;52.414;13.226;2022-10-22T03:27:33;4.22;;;2.10;;
64208;SDS011;50527;52.414;13.226;2022-10-22T03:29:59;5.65;;;2.67;;
64208;SDS011;50527;52.414;13.226;2022-10-22T03:32:26;5.50;;;2.50;;
64208;SDS011;50527;52.414;13.226;2022-10-22T03:34:51;9.05;;;2.70;;
64208;SDS011;50527;52.414;13.226;2022-10-22T03:37:17;7.15;;;2.58;;
64208;SDS011;50527;52.414;13.226;2022-10-22T03:39:42;6.25;;;2.60;;
64208;SDS011;50527;52.414;13.226;2022-10-22T03:42:08;5.80;;;2.50;;
64208;SDS011;50527;52.414;13.226;2022-10-22T03:44:34;6.07;;;2.40;;
64208;SDS011;50527;52.414;13.226;2022-10-22T03:47:01;4.55;;;2.33;;
64208;SDS011;50527;52.414;13.226;2022-10-22T03:49:27;6.88;;;2.35;;
64208;SDS011;50527;52.414;13.226;2022-10-22T03:51:52;5.60;;;2.33;;
64208;SDS011;50527;52.414;13.226;2022-10-22T03:54:18;7.20;;;2.10;;
64208;SDS011;50527;52.414;13.226;2022-10-22T03:56:43;4.32;;;2.05;;
64208;SDS011;50527;52.414;13.226;2022-10-22T03:59:09;5.53;;;1.95;;
64208;SDS011;50527;52.414;13.226;2022-10-22T04:01:34;6.03;;;2.08;;
64208;SDS011;50527;52.414;13.226;2022-10-22T04:04:00;4.35;;;2.20;;
64208;SDS011;50527;52.414;13.226;2022-10-22T04:06:25;4.60;;;2.00;;
64208;SDS011;50527;52.414;13.226;2022-10-22T04:08:53;4.38;;;2.20;;
64208;SDS011;50527;52.414;13.226;2022-10-22T04:11:18;6.10;;;2.10;;
64208;SDS011;50527;52.414;13.226;2022-10-22T04:13:43;6.80;;;2.33;;
64208;SDS011;50527;52.414;13.226;2022-10-22T04:16:10;6.95;;;2.40;;
64208;SDS011;50527;52.414;13.226;2022-10-22T04:18:40;5.15;;;2.50;;
64208;SDS011;50527;52.414;13.226;2022-10-22T04:21:07;5.10;;;2.60;;
64208;SDS011;50527;52.414;13.226;2022-10-22T04:23:34;7.32;;;2.47;;
64208;SDS011;50527;52.414;13.226;2022-10-22T04:26:01;9.65;;;2.88;;
64208;SDS011;50527;52.414;13.226;2022-10-22T04:28:29;6.90;;;3.00;;
64208;SDS011;50527;52.414;13.226;2022-10-22T04:30:55;7.75;;;2.80;;
64208;SDS011;50527;52.414;13.226;2022-10-22T04:33:20;8.18;;;2.85;;
64208;SDS011;50527;52.414;13.226;2022-10-22T04:35:46;6.65;;;2.85;;
64208;SDS011;50527;52.414;13.226;2022-10-22T04:38:11;7.88;;;2.88;;
64208;SDS011;50527;52.414;13.226;2022-10-22T04:40:37;7.97;;;3.03;;
64208;SDS011;50527;52.414;13.226;2022-10-22T04:43:02;6.38;;;2.88;;
64208;SDS011;50527;52.414;13.226;2022-10-22T04:45:28;6.47;;;2.72;;
64208;SDS011;50527;52.414;13.226;2022-10-22T04:47:53;5.70;;;2.90;;
64208;SDS011;50527;52.414;13.226;2022-10-22T04:50:19;8.68;;;2.97;;
64208;SDS011;50527;52.414;13.226;2022-10-22T04:52:44;6.07;;;2.75;;
64208;SDS011;50527;52.414;13.226;2022-10-22T04:55:10;6.78;;;2.88;;
64208;SDS011;50527;52.414;13.226;2022-10-22T04:57:35;6.28;;;2.95;;
64208;SDS011;50527;52.414;13.226;2022-10-22T05:00:01;6.85;;;2.72;;
64208;SDS011;50527;52.414;13.226;2022-10-22T05:02:27;6.60;;;2.50;;
64208;SDS011;50527;52.414;13.226;2022-10-22T05:04:53;6.68;;;3.00;;
64208;SDS011;50527;52.414;13.226;2022-10-22T05:07:18;6.60;;;3.10;;
64208;SDS011;50527;52.414;13.226;2022-10-22T05:09:43;5.85;;;2.80;;
64208;SDS011;50527;52.414;13.226;2022-10-22T05:12:09;5.47;;;2.65;;
64208;SDS011;50527;52.414;13.226;2022-10-22T05:14:34;7.32;;;2.50;;
64208;SDS011;50527;52.414;13.226;2022-10-22T05:17:00;4.90;;;2.60;;
64208;SDS011;50527;52.414;13.226;2022-10-22T05:19:26;8.93;;;2.60;;
64208;SDS011;50527;52.414;13.226;2022-10-22T05:21:54;6.47;;;2.60;;
64208;SDS011;50527;52.414;13.226;2022-10-22T05:24:21;4.95;;;2.60;;
64208;SDS011;50527;52.414;13.226;2022-10-22T05:26:48;5.90;;;2.60;;
64208;SDS011;50527;52.414;13.226;2022-10-22T05:29:14;5.30;;;2.22;;
64208;SDS011;50527;52.414;13.226;2022-10-22T05:31:40;5.18;;;2.30;;
64208;SDS011;50527;52.414;13.226;2022-10-22T05:34:05;4.13;;;2.10;;
64208;SDS011;50527;52.414;13.226;2022-10-22T05:36:31;6.28;;;2.40;;
64208;SDS011;50527;52.414;13.226;2022-10-22T05:38:56;4.60;;;2.33;;
64208;SDS011;50527;52.414;13.226;2022-10-22T05:41:23;5.18;;;2.40;;
64208;SDS011;50527;52.414;13.226;2022-10-22T05:43:49;5.43;;;2.25;;
64208;SDS011;50527;52.414;13.226;2022-10-22T05:46:19;4.72;;;2.47;;
64208;SDS011;50527;52.414;13.226;2022-10-22T05:48:49;7.53;;;2.70;;
64208;SDS011;50527;52.414;13.226;2022-10-22T05:51:15;6.68;;;2.42;;
64208;SDS011;50527;52.414;13.226;2022-10-22T05:53:41;5.57;;;2.55;;
64208;SDS011;50527;52.414;13.226;2022-10-22T05:56:10;9.77;;;2.60;;
64208;SDS011;50527;52.414;13.226;2022-10-22T05:58:37;7.03;;;2.45;;
64208;SDS011;50527;52.414;13.226;2022-10-22T06:01:03;5.05;;;1.98;;
64208;SDS011;50527;52.414;13.226;2022-10-22T06:03:31;4.43;;;2.30;;
64208;SDS011;50527;52.414;13.226;2022-10-22T06:05:58;9.80;;;2.80;;
64208;SDS011;50527;52.414;13.226;2022-10-22T06:08:25;6.00;;;2.20;;
64208;SDS011;50527;52.414;13.226;2022-10-22T06:10:51;9.50;;;2.55;;
64208;SDS011;50527;52.414;13.226;2022-10-22T06:13:17;10.23;;;2.08;;
64208;SDS011;50527;52.414;13.226;2022-10-22T06:15:42;6.70;;;2.25;;
64208;SDS011;50527;52.414;13.226;2022-10-22T06:18:08;4.55;;;2.20;;
64208;SDS011;50527;52.414;13.226;2022-10-22T06:20:33;4.38;;;2.20;;
64208;SDS011;50527;52.414;13.226;2022-10-22T06:22:59;4.40;;;2.22;;
64208;SDS011;50527;52.414;13.226;2022-10-22T06:25:24;5.28;;;2.17;;
64208;SDS011;50527;52.414;13.226;2022-10-22T06:27:50;7.40;;;2.85;;
64208;SDS011;50527;52.414;13.226;2022-10-22T06:30:16;8.93;;;2.50;;
64208;SDS011;50527;52.414;13.226;2022-10-22T06:32:42;6.20;;;2.70;;
64208;SDS011;50527;52.414;13.226;2022-10-22T06:35:07;6.45;;;2.88;;
64208;SDS011;50527;52.414;13.226;2022-10-22T06:37:33;7.65;;;2.42;;
64208;SDS011;50527;52.414;13.226;2022-10-22T06:39:58;6.25;;;2.65;;
64208;SDS011;50527;52.414;13.226;2022-10-22T06:42:24;4.97;;;2.53;;
64208;SDS011;50527;52.414;13.226;2022-10-22T06:44:49;5.55;;;2.92;;
64208;SDS011;50527;52.414;13.226;2022-10-22T06:47:15;6.63;;;2.83;;
64208;SDS011;50527;52.414;13.226;2022-10-22T06:49:40;5.88;;;2.50;;
64208;SDS011;50527;52.414;13.226;2022-10-22T06:52:06;6.68;;;2.78;;
64208;SDS011;50527;52.414;13.226;2022-10-22T06:54:32;6.57;;;2.65;;
64208;SDS011;50527;52.414;13.226;2022-10-22T06:56:57;5.80;;;2.42;;
64208;SDS011;50527;52.414;13.226;2022-10-22T06:59:23;7.93;;;2.60;;
64208;SDS011;50527;52.414;13.226;2022-10-22T07:01:48;7.63;;;2.47;;
64208;SDS011;50527;52.414;13.226;2022-10-22T07:04:14;7.53;;;2.67;;
64208;SDS011;50527;52.414;13.226;2022-10-22T07:06:39;6.50;;;2.85;;
64208;SDS011;50527;52.414;13.226;2022-10-22T07:09:05;7.80;;;2.60;;
64208;SDS011;50527;52.414;13.226;2022-10-22T07:11:40;7.90;;;2.70;;
64208;SDS011;50527;52.414;13.226;2022-10-22T07:14:07;5.82;;;2.90;;
64208;SDS011;50527;52.414;13.226;2022-10-22T07:16:33;5.35;;;2.60;;
64208;SDS011;50527;52.414;13.226;2022-10-22T07:18:59;7.57;;;2.70;;
64208;SDS011;50527;52.414;13.226;2022-10-22T07:21:25;9.30;;;2.90;;
64208;SDS011;50527;52.414;13.226;2022-10-22T07:23:50;7.40;;;3.03;;
64208;SDS011;50527;52.414;13.226;2022-10-22T07:26:16;8.35;;;2.92;;
64208;SDS011;50527;52.414;13.226;2022-10-22T07:28:44;8.90;;;3.17;;
64208;SDS011;50527;52.414;13.226;2022-10-22T07:31:10;7.38;;;3.15;;
64208;SDS011;50527;52.414;13.226;2022-10-22T07:33:37;6.13;;;2.83;;
64208;SDS011;50527;52.414;13.226;2022-10-22T07:36:04;6.45;;;2.92;;
64208;SDS011;50527;52.414;13.226;2022-10-22T07:38:31;7.35;;;2.80;;
64208;SDS011;50527;52.414;13.226;2022-10-22T07:40:57;8.15;;;3.03;;
64208;SDS011;50527;52.414;13.226;2022-10-22T07:43:23;6.55;;;2.78;;
64208;SDS011;50527;52.414;13.226;2022-10-22T07:45:49;5.78;;;3.00;;
64208;SDS011;50527;52.414;13.226;2022-10-22T07:48:15;8.00;;;3.08;;
64208;SDS011;50527;52.414;13.226;2022-10-22T07:50:41;9.15;;;3.17;;
64208;SDS011;50527;52.414;13.226;2022-10-22T07:53:07;5.50;;;2.95;;
64208;SDS011;50527;52.414;13.226;2022-10-22T07:55:32;6.72;;;2.80;;
64208;SDS011;50527;52.414;13.226;2022-10-22T07:57:58;8.13;;;3.13;;
64208;SDS011;50527;52.414;13.226;2022-10-22T08:00:24;6.28;;;3.05;;
64208;SDS011;50527;52.414;13.226;2022-10-22T08:02:49;11.88;;;3.30;;
64208;SDS011;50527;52.414;13.226;2022-10-22T08:05:15;6.25;;;3.05;;
64208;SDS011;50527;52.414;13.226;2022-10-22T08:07:41;9.13;;;3.30;;
64208;SDS011;50527;52.414;13.226;2022-10-22T08:10:07;5.18;;;2.67;;
64208;SDS011;50527;52.414;13.226;2022-10-22T08:12:33;8.02;;;2.78;;
64208;SDS011;50527;52.414;13.226;2022-10-22T08:14:59;6.10;;;2.75;;
64208;SDS011;50527;52.414;13.226;2022-10-22T08:17:25;5.82;;;3.15;;
64208;SDS011;50527;52.414;13.226;2022-10-22T08:19:51;7.15;;;3.00;;
64208;SDS011;50527;52.414;13.226;2022-10-22T08:22:16;5.00;;;2.75;;
64208;SDS011;50527;52.414;13.226;2022-10-22T08:24:42;7.88;;;2.88;;
64208;SDS011;50527;52.414;13.226;2022-10-22T08:27:07;6.55;;;3.38;;
64208;SDS011;50527;52.414;13.226;2022-10-22T08:29:33;8.50;;;3.15;;
64208;SDS011;50527;52.414;13.226;2022-10-22T08:31:58;5.78;;;2.90;;
64208;SDS011;50527;52.414;13.226;2022-10-22T08:34:26;8.43;;;3.08;;
64208;SDS011;50527;52.414;13.226;2022-10-22T08:36:52;6.85;;;3.20;;
64208;SDS011;50527;52.414;13.226;2022-10-22T08:39:17;6.47;;;3.10;;
64208;SDS011;50527;52.414;13.226;2022-10-22T08:41:55;7.13;;;3.28;;
64208;SDS011;50527;52.414;13.226;2022-10-22T08:50:14;5.65;;;3.10;;
64208;SDS011;50527;52.414;13.226;2022-10-22T08:52:43;5.15;;;2.75;;
64208;SDS011;50527;52.414;13.226;2022-10-22T08:55:13;6.05;;;2.67;;
64208;SDS011;50527;52.414;13.226;2022-10-22T09:00:42;5.47;;;3.00;;
64208;SDS011;50527;52.414;13.226;2022-10-22T09:03:25;7.03;;;3.17;;
64208;SDS011;50527;52.414;13.226;2022-10-22T09:05:59;7.93;;;2.80;;
64208;SDS011;50527;52.414;13.226;2022-10-22T09:08:35;8.75;;;3.58;;
64208;SDS011;50527;52.414;13.226;2022-10-22T09:11:02;8.25;;;3.15;;
64208;SDS011;50527;52.414;13.226;2022-10-22T09:13:36;7.20;;;3.05;;
64208;SDS011;50527;52.414;13.226;2022-10-22T09:16:13;9.27;;;3.60;;
64208;SDS011;50527;52.414;13.226;2022-10-22T09:24:12;8.02;;;3.03;;
64208;SDS011;50527;52.414;13.226;2022-10-22T09:26:48;9.90;;;3.42;;
64208;SDS011;50527;52.414;13.226;2022-10-22T09:29:16;6.10;;;3.13;;
64208;SDS011;50527;52.414;13.226;2022-10-22T09:31:44;7.22;;;3.00;;
64208;SDS011;50527;52.414;13.226;2022-10-22T09:34:12;9.65;;;3.35;;
64208;SDS011;50527;52.414;13.226;2022-10-22T09:36:54;6.32;;;3.30;;
64208;SDS011;50527;52.414;13.226;2022-10-22T09:39:33;6.95;;;3.40;;
64208;SDS011;50527;52.414;13.226;2022-10-22T09:42:01;7.85;;;3.30;;
64208;SDS011;50527;52.414;13.226;2022-10-22T09:44:27;6.82;;;3.45;;
64208;SDS011;50527;52.414;13.226;2022-10-22T09:46:53;10.73;;;3.15;;
64208;SDS011;50527;52.414;13.226;2022-10-22T09:49:19;8.13;;;3.08;;
64208;SDS011;50527;52.414;13.226;2022-10-22T09:51:48;5.47;;;2.80;;
64208;SDS011;50527;52.414;13.226;2022-10-22T09:56:46;6.47;;;2.75;;
64208;SDS011;50527;52.414;13.226;2022-10-22T09:59:17;6.88;;;3.13;;
64208;SDS011;50527;52.414;13.226;2022-10-22T10:01:54;7.38;;;3.08;;
64208;SDS011;50527;52.414;13.226;2022-10-22T10:04:21;6.10;;;2.50;;
64208;SDS011;50527;52.414;13.226;2022-10-22T10:06:52;8.68;;;2.97;;
64208;SDS011;50527;52.414;13.226;2022-10-22T10:09:21;5.10;;;2.72;;
64208;SDS011;50527;52.414;13.226;2022-10-22T10:11:52;5.13;;;2.50;;
64208;SDS011;50527;52.414;13.226;2022-10-22T10:14:44;5.70;;;2.38;;
64208;SDS011;50527;52.414;13.226;2022-10-22T10:22:52;6.00;;;2.47;;
64208;SDS011;50527;52.414;13.226;2022-10-22T10:28:23;4.68;;;2.25;;
64208;SDS011;50527;52.414;13.226;2022-10-22T10:31:09;4.40;;;2.30;;
64208;SDS011;50527;52.414;13.226;2022-10-22T10:34:01;9.75;;;3.30;;
64208;SDS011;50527;52.414;13.226;2022-10-22T10:39:03;5.20;;;2.38;;
64208;SDS011;50527;52.414;13.226;2022-10-22T10:49:38;4.60;;;2.35;;
64208;SDS011;50527;52.414;13.226;2022-10-22T11:00:17;7.55;;;1.88;;
64208;SDS011;50527;52.414;13.226;2022-10-22T11:05:54;5.32;;;1.75;;
64208;SDS011;50527;52.414;13.226;2022-10-22T11:08:25;4.88;;;1.92;;
64208;SDS011;50527;52.414;13.226;2022-10-22T11:13:34;8.00;;;1.88;;
64208;SDS011;50527;52.414;13.226;2022-10-22T11:18:52;5.75;;;1.80;;
64208;SDS011;50527;52.414;13.226;2022-10-22T11:21:42;6.50;;;1.92;;
64208;SDS011;50527;52.414;13.226;2022-10-22T11:24:19;4.50;;;2.10;;
64208;SDS011;50527;52.414;13.226;2022-10-22T11:27:00;4.72;;;1.80;;
64208;SDS011;50527;52.414;13.226;2022-10-22T11:29:43;3.53;;;1.73;;
64208;SDS011;50527;52.414;13.226;2022-10-22T11:32:16;3.50;;;1.60;;
64208;SDS011;50527;52.414;13.226;2022-10-22T11:34:49;3.60;;;1.67;;
64208;SDS011;50527;52.414;13.226;2022-10-22T11:37:18;5.93;;;2.00;;
64208;SDS011;50527;52.414;13.226;2022-10-22T11:39:58;6.55;;;2.10;;
64208;SDS011;50527;52.414;13.226;2022-10-22T11:42:39;5.10;;;2.00;;
64208;SDS011;50527;52.414;13.226;2022-10-22T11:47:58;3.83;;;1.60;;
64208;SDS011;50527;52.414;13.226;2022-10-22T11:53:56;2.65;;;1.38;;
64208;SDS011;50527;52.414;13.226;2022-10-22T11:56:24;4.00;;;1.33;;
64208;SDS011;50527;52.414;13.226;2022-10-22T11:58:50;5.93;;;1.58;;
64208;SDS011;50527;52.414;13.226;2022-10-22T12:01:21;5.10;;;1.25;;
64208;SDS011;50527;52.414;13.226;2022-10-22T12:03:52;7.65;;;1.40;;
64208;SDS011;50527;52.414;13.226;2022-10-22T12:06:52;3.38;;;1.13;;
64208;SDS011;50527;52.414;13.226;2022-10-22T12:09:27;3.40;;;1.20;;
64208;SDS011;50527;52.414;13.226;2022-10-22T12:12:04;3.10;;;1.10;;
64208;SDS011;50527;52.414;13.226;2022-10-22T12:14:49;9.00;;;1.13;;
64208;SDS011;50527;52.414;13.226;2022-10-22T12:17:17;2.58;;;1.10;;
64208;SDS011;50527;52.414;13.226;2022-10-22T12:19:46;3.88;;;1.10;;
64208;SDS011;50527;52.414;13.226;2022-10-22T12:22:25;4.57;;;0.93;;
64208;SDS011;50527;52.414;13.226;2022-10-22T12:24:54;4.30;;;1.00;;
64208;SDS011;50527;52.414;13.226;2022-10-22T12:27:26;1.92;;;0.73;;
64208;SDS011;50527;52.414;13.226;2022-10-22T12:29:59;1.80;;;0.70;;
64208;SDS011;50527;52.414;13.226;2022-10-22T12:32:33;2.83;;;0.90;;
64208;SDS011;50527;52.414;13.226;2022-10-22T12:35:07;4.70;;;0.95;;
64208;SDS011;50527;52.414;13.226;2022-10-22T12:37:38;3.35;;;0.80;;
64208;SDS011;50527;52.414;13.226;2022-10-22T12:45:22;4.90;;;0.70;;
64208;SDS011;50527;52.414;13.226;2022-10-22T12:47:51;5.07;;;0.85;;
64208;SDS011;50527;52.414;13.226;2022-10-22T12:50:22;3.10;;;0.80;;
64208;SDS011;50527;52.414;13.226;2022-10-22T12:52:58;3.80;;;0.70;;
64208;SDS011;50527;52.414;13.226;2022-10-22T12:55:24;2.13;;;0.75;;
64208;SDS011;50527;52.414;13.226;2022-10-22T12:57:50;5.75;;;0.75;;
64208;SDS011;50527;52.414;13.226;2022-10-22T13:00:24;3.53;;;0.90;;
64208;SDS011;50527;52.414;13.226;2022-10-22T13:02:52;3.47;;;0.70;;
64208;SDS011;50527;52.414;13.226;2022-10-22T13:07:54;3.38;;;0.73;;
64208;SDS011;50527;52.414;13.226;2022-10-22T13:10:50;3.35;;;0.70;;
64208;SDS011;50527;52.414;13.226;2022-10-22T13:16:16;3.33;;;0.80;;
64208;SDS011;50527;52.414;13.226;2022-10-22T13:18:42;7.25;;;0.80;;
64208;SDS011;50527;52.414;13.226;2022-10-22T13:24:19;3.50;;;0.70;;
64208;SDS011;50527;52.414;13.226;2022-10-22T13:26:50;2.15;;;0.52;;
64208;SDS011;50527;52.414;13.226;2022-10-22T13:29:18;5.00;;;0.77;;
64208;SDS011;50527;52.414;13.226;2022-10-22T13:31:51;6.00;;;0.82;;
64208;SDS011;50527;52.414;13.226;2022-10-22T13:34:21;5.70;;;1.17;;
64208;SDS011;50527;52.414;13.226;2022-10-22T13:36:49;3.38;;;0.63;;
64208;SDS011;50527;52.414;13.226;2022-10-22T13:39:19;1.65;;;0.60;;
64208;SDS011;50527;52.414;13.226;2022-10-22T13:41:47;5.28;;;0.73;;
64208;SDS011;50527;52.414;13.226;2022-10-22T13:44:16;3.30;;;0.80;;
64208;SDS011;50527;52.414;13.226;2022-10-22T13:46:42;3.53;;;1.13;;
64208;SDS011;50527;52.414;13.226;2022-10-22T13:49:11;4.38;;;0.70;;
64208;SDS011;50527;52.414;13.226;2022-10-22T13:51:39;2.72;;;0.60;;
64208;SDS011;50527;52.414;13.226;2022-10-22T13:54:09;3.67;;;0.50;;
64208;SDS011;50527;52.414;13.226;2022-10-22T13:56:40;7.32;;;0.60;;
64208;SDS011;50527;52.414;13.226;2022-10-22T13:59:05;4.07;;;0.50;;
64208;SDS011;50527;52.414;13.226;2022-10-22T14:01:32;6.10;;;0.57;;
64208;SDS011;50527;52.414;13.226;2022-10-22T14:03:57;2.83;;;0.63;;
64208;SDS011;50527;52.414;13.226;2022-10-22T14:06:26;3.25;;;0.32;;
64208;SDS011;50527;52.414;13.226;2022-10-22T14:08:59;2.88;;;0.60;;
64208;SDS011;50527;52.414;13.226;2022-10-22T14:11:28;2.30;;;0.47;;
64208;SDS011;50527;52.414;13.226;2022-10-22T14:13:56;3.67;;;0.70;;
64208;SDS011;50527;52.414;13.226;2022-10-22T14:16:23;2.28;;;0.40;;
64208;SDS011;50527;52.414;13.226;2022-10-22T14:18:50;5.45;;;0.75;;
64208;SDS011;50527;52.414;13.226;2022-10-22T14:21:17;3.97;;;0.38;;
64208;SDS011;50527;52.414;13.226;2022-10-22T14:23:44;8.68;;;0.60;;
64208;SDS011;50527;52.414;13.226;2022-10-22T14:26:29;4.93;;;0.80;;
64208;SDS011;50527;52.414;13.226;2022-10-22T14:28:57;1.70;;;0.30;;
64208;SDS011;50527;52.414;13.226;2022-10-22T14:31:26;5.32;;;0.80;;
64208;SDS011;50527;52.414;13.226;2022-10-22T14:33:52;3.88;;;0.70;;
64208;SDS011;50527;52.414;13.226;2022-10-22T14:36:17;4.15;;;0.60;;
64208;SDS011;50527;52.414;13.226;2022-10-22T14:38:43;4.00;;;0.50;;
64208;SDS011;50527;52.414;13.226;2022-10-22T14:41:18;3.80;;;0.50;;
64208;SDS011;50527;52.414;13.226;2022-10-22T14:43:47;6.00;;;0.75;;
64208;SDS011;50527;52.414;13.226;2022-10-22T14:46:14;5.25;;;0.80;;
64208;SDS011;50527;52.414;13.226;2022-10-22T14:48:40;3.13;;;0.60;;
64208;SDS011;50527;52.414;13.226;2022-10-22T14:51:06;3.55;;;0.50;;
64208;SDS011;50527;52.414;13.226;2022-10-22T14:53:35;2.42;;;0.55;;
64208;SDS011;50527;52.414;13.226;2022-10-22T14:56:01;2.17;;;0.70;;
64208;SDS011;50527;52.414;13.226;2022-10-22T14:58:26;3.60;;;0.65;;
64208;SDS011;50527;52.414;13.226;2022-10-22T15:00:52;4.88;;;0.70;;
64208;SDS011;50527;52.414;13.226;2022-10-22T15:03:17;2.58;;;0.60;;
64208;SDS011;50527;52.414;13.226;2022-10-22T15:05:43;3.35;;;0.47;;
64208;SDS011;50527;52.414;13.226;2022-10-22T15:08:09;4.40;;;0.52;;
64208;SDS011;50527;52.414;13.226;2022-10-22T15:10:35;3.75;;;0.50;;
64208;SDS011;50527;52.414;13.226;2022-10-22T15:13:01;3.85;;;0.55;;
64208;SDS011;50527;52.414;13.226;2022-10-22T15:15:26;2.75;;;0.40;;
64208;SDS011;50527;52.414;13.226;2022-10-22T15:17:51;4.40;;;0.55;;
64208;SDS011;50527;52.414;13.226;2022-10-22T15:20:17;4.35;;;0.63;;
64208;SDS011;50527;52.414;13.226;2022-10-22T15:22:42;5.65;;;0.40;;
64208;SDS011;50527;52.414;13.226;2022-10-22T15:25:09;1.75;;;0.50;;
64208;SDS011;50527;52.414;13.226;2022-10-22T15:27:36;6.05;;;0.63;;
64208;SDS011;50527;52.414;13.226;2022-10-22T15:30:02;1.98;;;0.40;;
64208;SDS011;50527;52.414;13.226;2022-10-22T15:32:29;3.05;;;0.55;;
64208;SDS011;50527;52.414;13.226;2022-10-22T15:34:56;2.00;;;0.50;;
64208;SDS011;50527;52.414;13.226;2022-10-22T15:37:21;2.83;;;0.55;;
64208;SDS011;50527;52.414;13.226;2022-10-22T15:39:47;3.88;;;0.50;;
64208;SDS011;50527;52.414;13.226;2022-10-22T15:42:13;1.30;;;0.40;;
64208;SDS011;50527;52.414;13.226;2022-10-22T15:44:38;2.13;;;0.57;;
64208;SDS011;50527;52.414;13.226;2022-10-22T15:47:04;3.97;;;0.60;;
64208;SDS011;50527;52.414;13.226;2022-10-22T15:49:32;4.50;;;0.50;;
64208;SDS011;50527;52.414;13.226;2022-10-22T15:51:58;5.22;;;0.50;;
64208;SDS011;50527;52.414;13.226;2022-10-22T15:54:25;6.03;;;0.43;;
64208;SDS011;50527;52.414;13.226;2022-10-22T15:56:52;4.47;;;0.60;;
64208;SDS011;50527;52.414;13.226;2022-10-22T15:59:19;3.78;;;0.50;;
64208;SDS011;50527;52.414;13.226;2022-10-22T16:01:44;1.15;;;0.40;;
64208;SDS011;50527;52.414;13.226;2022-10-22T16:04:10;4.43;;;0.60;;
64208;SDS011;50527;52.414;13.226;2022-10-22T16:06:49;5.60;;;0.70;;
64208;SDS011;50527;52.414;13.226;2022-10-22T16:09:17;2.92;;;0.50;;